sensor_id;sensor_type;location;lat;lon;timestamp;temperature;humidity
5697;DHT22;2873;50.966;7.210;2022-09-09T00:04:27;18.70;99.90
5697;DHT22;2873;50.966;7.210;2022-09-09T00:12:34;18.60;99.90
5697;DHT22;2873;50.966;7.210;2022-09-09T00:15:13;18.60;99.90
5697;DHT22;2873;50.966;7.210;2022-09-09T00:17:43;18.60;99.90
5697;DHT22;2873;50.966;7.210;2022-09-09T00:23:12;18.50;99.90
5697;DHT22;2873;50.966;7.210;2022-09-09T00:28:30;18.50;99.90
5697;DHT22;2873;50.966;7.210;2022-09-09T00:31:21;18.40;99.90
5697;DHT22;2873;50.966;7.210;2022-09-09T00:33:49;18.50;99.90
5697;DHT22;2873;50.966;7.210;2022-09-09T00:36:18;18.40;99.90
5697;DHT22;2873;50.966;7.210;2022-09-09T00:38:53;18.40;99.90
5697;DHT22;2873;50.966;7.210;2022-09-09T00:43:56;18.40;99.90
5697;DHT22;2873;50.966;7.210;2022-09-09T00:46:30;18.40;99.90
5697;DHT22;2873;50.966;7.210;2022-09-09T00:57:23;18.30;99.90
5697;DHT22;2873;50.966;7.210;2022-09-09T01:00:23;18.30;99.90
5697;DHT22;2873;50.966;7.210;2022-09-09T01:10:52;18.20;99.90
5697;DHT22;2873;50.966;7.210;2022-09-09T01:13:27;18.20;99.90
5697;DHT22;2873;50.966;7.210;2022-09-09T01:15:57;18.20;99.90
5697;DHT22;2873;50.966;7.210;2022-09-09T01:18:27;18.20;99.90
5697;DHT22;2873;50.966;7.210;2022-09-09T01:24:04;18.30;99.90
5697;DHT22;2873;50.966;7.210;2022-09-09T01:26:41;18.30;99.90
5697;DHT22;2873;50.966;7.210;2022-09-09T01:29:16;18.30;99.90
5697;DHT22;2873;50.966;7.210;2022-09-09T01:34:17;18.30;99.90
5697;DHT22;2873;50.966;7.210;2022-09-09T01:36:49;18.50;99.90
5697;DHT22;2873;50.966;7.210;2022-09-09T01:39:16;18.40;99.90
5697;DHT22;2873;50.966;7.210;2022-09-09T01:41:42;18.50;99.90
5697;DHT22;2873;50.966;7.210;2022-09-09T01:44:08;18.50;99.90
5697;DHT22;2873;50.966;7.210;2022-09-09T01:46:34;18.50;99.90
5697;DHT22;2873;50.966;7.210;2022-09-09T01:49:02;18.40;99.90
5697;DHT22;2873;50.966;7.210;2022-09-09T01:51:28;18.40;99.90
5697;DHT22;2873;50.966;7.210;2022-09-09T01:53:54;18.30;99.90
5697;DHT22;2873;50.966;7.210;2022-09-09T01:56:44;18.40;99.90
5697;DHT22;2873;50.966;7.210;2022-09-09T02:02:24;18.40;99.90
5697;DHT22;2873;50.966;7.210;2022-09-09T02:07:47;18.30;99.90
5697;DHT22;2873;50.966;7.210;2022-09-09T02:10:29;18.30;99.90
5697;DHT22;2873;50.966;7.210;2022-09-09T02:13:10;18.30;99.90
5697;DHT22;2873;50.966;7.210;2022-09-09T02:15:45;18.30;99.90
5697;DHT22;2873;50.966;7.210;2022-09-09T02:18:14;18.30;99.90
5697;DHT22;2873;50.966;7.210;2022-09-09T02:20:44;18.30;99.90
5697;DHT22;2873;50.966;7.210;2022-09-09T02:23:11;18.40;99.90
5697;DHT22;2873;50.966;7.210;2022-09-09T02:25:38;18.30;99.90
5697;DHT22;2873;50.966;7.210;2022-09-09T02:28:08;18.30;99.90
5697;DHT22;2873;50.966;7.210;2022-09-09T02:30:37;18.30;99.90
5697;DHT22;2873;50.966;7.210;2022-09-09T02:33:04;18.40;99.90
5697;DHT22;2873;50.966;7.210;2022-09-09T02:35:32;18.50;99.90
5697;DHT22;2873;50.966;7.210;2022-09-09T02:38:05;18.40;99.90
5697;DHT22;2873;50.966;7.210;2022-09-09T02:40:32;18.60;99.90
5697;DHT22;2873;50.966;7.210;2022-09-09T02:42:58;18.40;99.90
5697;DHT22;2873;50.966;7.210;2022-09-09T02:45:31;18.30;99.90
5697;DHT22;2873;50.966;7.210;2022-09-09T02:48:03;18.20;99.90
5697;DHT22;2873;50.966;7.210;2022-09-09T02:50:55;18.20;99.90
5697;DHT22;2873;50.966;7.210;2022-09-09T02:56:09;18.20;99.90
5697;DHT22;2873;50.966;7.210;2022-09-09T02:58:37;18.20;99.90
5697;DHT22;2873;50.966;7.210;2022-09-09T03:01:04;18.20;99.90
5697;DHT22;2873;50.966;7.210;2022-09-09T03:03:30;18.20;99.90
5697;DHT22;2873;50.966;7.210;2022-09-09T03:05:56;18.20;99.90
5697;DHT22;2873;50.966;7.210;2022-09-09T03:08:22;18.10;99.90
5697;DHT22;2873;50.966;7.210;2022-09-09T03:10:48;18.10;99.90
5697;DHT22;2873;50.966;7.210;2022-09-09T03:13:13;18.00;99.90
5697;DHT22;2873;50.966;7.210;2022-09-09T03:15:40;18.10;99.90
5697;DHT22;2873;50.966;7.210;2022-09-09T03:18:06;18.20;99.90
5697;DHT22;2873;50.966;7.210;2022-09-09T03:20:32;18.20;99.90
5697;DHT22;2873;50.966;7.210;2022-09-09T03:22:59;18.10;99.90
5697;DHT22;2873;50.966;7.210;2022-09-09T03:25:25;18.20;99.90
5697;DHT22;2873;50.966;7.210;2022-09-09T03:27:52;18.20;99.90
5697;DHT22;2873;50.966;7.210;2022-09-09T03:30:23;18.30;99.90
5697;DHT22;2873;50.966;7.210;2022-09-09T03:32:50;18.30;99.90
5697;DHT22;2873;50.966;7.210;2022-09-09T03:35:16;18.50;99.90
5697;DHT22;2873;50.966;7.210;2022-09-09T03:37:42;18.30;99.90
5697;DHT22;2873;50.966;7.210;2022-09-09T03:40:08;18.30;99.90
5697;DHT22;2873;50.966;7.210;2022-09-09T03:42:35;18.30;99.90
5697;DHT22;2873;50.966;7.210;2022-09-09T03:45:03;18.30;99.90
5697;DHT22;2873;50.966;7.210;2022-09-09T03:47:29;18.40;99.90
5697;DHT22;2873;50.966;7.210;2022-09-09T03:49:55;18.30;99.90
5697;DHT22;2873;50.966;7.210;2022-09-09T03:52:21;18.30;99.90
5697;DHT22;2873;50.966;7.210;2022-09-09T03:54:50;18.30;99.90
5697;DHT22;2873;50.966;7.210;2022-09-09T03:57:16;18.30;99.90
5697;DHT22;2873;50.966;7.210;2022-09-09T03:59:42;18.30;99.90
5697;DHT22;2873;50.966;7.210;2022-09-09T04:02:08;18.40;99.90
5697;DHT22;2873;50.966;7.210;2022-09-09T04:04:34;18.30;99.90
5697;DHT22;2873;50.966;7.210;2022-09-09T04:06:59;18.40;99.90
5697;DHT22;2873;50.966;7.210;2022-09-09T04:09:25;18.40;99.90
5697;DHT22;2873;50.966;7.210;2022-09-09T04:11:50;18.30;99.90
5697;DHT22;2873;50.966;7.210;2022-09-09T04:14:17;18.40;99.90
5697;DHT22;2873;50.966;7.210;2022-09-09T04:16:42;18.40;99.90
5697;DHT22;2873;50.966;7.210;2022-09-09T04:19:10;18.50;99.90
5697;DHT22;2873;50.966;7.210;2022-09-09T04:21:39;18.40;99.90
5697;DHT22;2873;50.966;7.210;2022-09-09T04:24:06;18.40;99.90
5697;DHT22;2873;50.966;7.210;2022-09-09T04:26:32;18.40;99.90
5697;DHT22;2873;50.966;7.210;2022-09-09T04:28:58;18.40;99.90
5697;DHT22;2873;50.966;7.210;2022-09-09T04:31:23;18.40;99.90
5697;DHT22;2873;50.966;7.210;2022-09-09T04:33:50;18.40;99.90
5697;DHT22;2873;50.966;7.210;2022-09-09T04:36:16;18.50;99.90
5697;DHT22;2873;50.966;7.210;2022-09-09T04:38:43;18.40;99.90
5697;DHT22;2873;50.966;7.210;2022-09-09T04:41:10;18.50;99.90
5697;DHT22;2873;50.966;7.210;2022-09-09T04:43:36;18.40;99.90
5697;DHT22;2873;50.966;7.210;2022-09-09T04:46:02;18.30;99.90
5697;DHT22;2873;50.966;7.210;2022-09-09T04:48:28;18.30;99.90
5697;DHT22;2873;50.966;7.210;2022-09-09T04:50:56;18.50;99.90
5697;DHT22;2873;50.966;7.210;2022-09-09T04:53:22;18.40;99.90
5697;DHT22;2873;50.966;7.210;2022-09-09T04:55:47;18.30;99.90
5697;DHT22;2873;50.966;7.210;2022-09-09T04:58:14;18.30;99.90
5697;DHT22;2873;50.966;7.210;2022-09-09T05:00:39;18.40;99.90
5697;DHT22;2873;50.966;7.210;2022-09-09T05:03:05;18.30;99.90
5697;DHT22;2873;50.966;7.210;2022-09-09T05:05:32;18.30;99.90
5697;DHT22;2873;50.966;7.210;2022-09-09T05:08:03;18.30;99.90
5697;DHT22;2873;50.966;7.210;2022-09-09T05:10:30;18.30;99.90
5697;DHT22;2873;50.966;7.210;2022-09-09T05:12:56;18.30;99.90
5697;DHT22;2873;50.966;7.210;2022-09-09T05:15:22;18.30;99.90
5697;DHT22;2873;50.966;7.210;2022-09-09T05:17:48;18.30;99.90
5697;DHT22;2873;50.966;7.210;2022-09-09T05:20:13;18.20;99.90
5697;DHT22;2873;50.966;7.210;2022-09-09T05:22:39;18.20;99.90
5697;DHT22;2873;50.966;7.210;2022-09-09T05:25:05;18.20;99.90
5697;DHT22;2873;50.966;7.210;2022-09-09T05:27:33;18.20;99.90
5697;DHT22;2873;50.966;7.210;2022-09-09T05:29:59;18.10;99.90
5697;DHT22;2873;50.966;7.210;2022-09-09T05:32:25;18.00;99.90
5697;DHT22;2873;50.966;7.210;2022-09-09T05:34:51;18.00;99.90
5697;DHT22;2873;50.966;7.210;2022-09-09T05:37:17;18.00;99.90
5697;DHT22;2873;50.966;7.210;2022-09-09T05:39:43;18.00;99.90
5697;DHT22;2873;50.966;7.210;2022-09-09T05:42:09;18.10;99.90
5697;DHT22;2873;50.966;7.210;2022-09-09T05:44:34;18.00;99.90
5697;DHT22;2873;50.966;7.210;2022-09-09T05:47:00;18.00;99.90
5697;DHT22;2873;50.966;7.210;2022-09-09T05:49:25;18.10;99.90
5697;DHT22;2873;50.966;7.210;2022-09-09T05:51:51;18.00;99.90
5697;DHT22;2873;50.966;7.210;2022-09-09T05:54:17;18.00;99.90
5697;DHT22;2873;50.966;7.210;2022-09-09T05:56:43;18.20;99.90
5697;DHT22;2873;50.966;7.210;2022-09-09T05:59:08;18.00;99.90
5697;DHT22;2873;50.966;7.210;2022-09-09T06:01:36;18.00;99.90
5697;DHT22;2873;50.966;7.210;2022-09-09T06:04:03;18.00;99.90
5697;DHT22;2873;50.966;7.210;2022-09-09T06:06:36;18.20;99.90
5697;DHT22;2873;50.966;7.210;2022-09-09T06:09:06;18.00;99.90
5697;DHT22;2873;50.966;7.210;2022-09-09T06:11:35;18.10;99.90
5697;DHT22;2873;50.966;7.210;2022-09-09T06:14:02;18.10;99.90
5697;DHT22;2873;50.966;7.210;2022-09-09T06:16:29;18.10;99.90
5697;DHT22;2873;50.966;7.210;2022-09-09T06:18:56;18.20;99.90
5697;DHT22;2873;50.966;7.210;2022-09-09T06:21:24;18.20;99.90
5697;DHT22;2873;50.966;7.210;2022-09-09T06:23:50;18.20;99.90
5697;DHT22;2873;50.966;7.210;2022-09-09T06:26:23;18.10;99.90
5697;DHT22;2873;50.966;7.210;2022-09-09T06:28:51;18.20;99.90
5697;DHT22;2873;50.966;7.210;2022-09-09T06:31:19;18.30;99.90
5697;DHT22;2873;50.966;7.210;2022-09-09T06:33:49;18.30;99.90
5697;DHT22;2873;50.966;7.210;2022-09-09T06:36:27;18.20;99.90
5697;DHT22;2873;50.966;7.210;2022-09-09T06:38:53;18.40;99.90
5697;DHT22;2873;50.966;7.210;2022-09-09T06:41:22;18.50;99.90
5697;DHT22;2873;50.966;7.210;2022-09-09T06:43:48;18.40;99.90
5697;DHT22;2873;50.966;7.210;2022-09-09T06:46:16;18.50;99.90
5697;DHT22;2873;50.966;7.210;2022-09-09T06:48:43;18.30;99.90
5697;DHT22;2873;50.966;7.210;2022-09-09T06:53:37;18.40;99.90
5697;DHT22;2873;50.966;7.210;2022-09-09T06:58:36;18.30;99.90
5697;DHT22;2873;50.966;7.210;2022-09-09T07:01:05;18.40;99.90
5697;DHT22;2873;50.966;7.210;2022-09-09T07:03:32;18.40;99.90
5697;DHT22;2873;50.966;7.210;2022-09-09T07:05:59;18.30;99.90
5697;DHT22;2873;50.966;7.210;2022-09-09T07:08:25;18.40;99.90
5697;DHT22;2873;50.966;7.210;2022-09-09T07:10:51;18.40;99.90
5697;DHT22;2873;50.966;7.210;2022-09-09T07:13:23;18.30;99.90
5697;DHT22;2873;50.966;7.210;2022-09-09T07:15:51;18.40;99.90
5697;DHT22;2873;50.966;7.210;2022-09-09T07:18:17;18.40;99.90
5697;DHT22;2873;50.966;7.210;2022-09-09T07:20:42;18.50;99.90
5697;DHT22;2873;50.966;7.210;2022-09-09T07:23:08;18.50;99.90
5697;DHT22;2873;50.966;7.210;2022-09-09T07:25:33;18.50;99.90
5697;DHT22;2873;50.966;7.210;2022-09-09T07:27:59;18.50;99.90
5697;DHT22;2873;50.966;7.210;2022-09-09T07:30:25;18.60;99.90
5697;DHT22;2873;50.966;7.210;2022-09-09T07:32:53;18.70;99.90
5697;DHT22;2873;50.966;7.210;2022-09-09T07:35:19;18.80;99.90
5697;DHT22;2873;50.966;7.210;2022-09-09T07:37:45;18.90;99.90
5697;DHT22;2873;50.966;7.210;2022-09-09T07:40:11;18.90;99.90
5697;DHT22;2873;50.966;7.210;2022-09-09T07:42:36;19.00;99.90
5697;DHT22;2873;50.966;7.210;2022-09-09T07:45:03;19.10;99.90
5697;DHT22;2873;50.966;7.210;2022-09-09T07:47:29;19.20;99.90
5697;DHT22;2873;50.966;7.210;2022-09-09T07:49:55;19.20;99.90
5697;DHT22;2873;50.966;7.210;2022-09-09T07:52:21;19.20;99.90
5697;DHT22;2873;50.966;7.210;2022-09-09T07:54:46;19.10;99.90
5697;DHT22;2873;50.966;7.210;2022-09-09T07:57:12;19.10;99.90
5697;DHT22;2873;50.966;7.210;2022-09-09T07:59:38;19.30;99.90
5697;DHT22;2873;50.966;7.210;2022-09-09T08:02:04;19.50;99.90
5697;DHT22;2873;50.966;7.210;2022-09-09T08:04:30;19.50;99.90
5697;DHT22;2873;50.966;7.210;2022-09-09T08:06:58;19.60;99.90
5697;DHT22;2873;50.966;7.210;2022-09-09T08:09:26;19.70;99.90
5697;DHT22;2873;50.966;7.210;2022-09-09T08:11:55;19.80;99.90
5697;DHT22;2873;50.966;7.210;2022-09-09T08:14:22;20.00;99.90
5697;DHT22;2873;50.966;7.210;2022-09-09T08:16:49;20.00;99.90
5697;DHT22;2873;50.966;7.210;2022-09-09T08:19:14;20.00;99.90
5697;DHT22;2873;50.966;7.210;2022-09-09T08:21:41;19.90;99.90
5697;DHT22;2873;50.966;7.210;2022-09-09T08:24:09;19.80;99.90
5697;DHT22;2873;50.966;7.210;2022-09-09T08:26:41;19.90;99.90
5697;DHT22;2873;50.966;7.210;2022-09-09T08:29:08;19.80;99.90
5697;DHT22;2873;50.966;7.210;2022-09-09T08:31:37;19.90;99.90
5697;DHT22;2873;50.966;7.210;2022-09-09T08:34:03;20.00;99.90
5697;DHT22;2873;50.966;7.210;2022-09-09T08:36:34;20.10;99.90
5697;DHT22;2873;50.966;7.210;2022-09-09T08:39:00;20.10;99.90
5697;DHT22;2873;50.966;7.210;2022-09-09T08:41:54;20.20;99.90
5697;DHT22;2873;50.966;7.210;2022-09-09T08:58:23;20.20;99.90
5697;DHT22;2873;50.966;7.210;2022-09-09T09:04:27;20.30;99.90
5697;DHT22;2873;50.966;7.210;2022-09-09T09:12:37;20.40;99.90
5697;DHT22;2873;50.966;7.210;2022-09-09T09:15:14;20.10;99.90
5697;DHT22;2873;50.966;7.210;2022-09-09T09:17:42;20.10;99.90
5697;DHT22;2873;50.966;7.210;2022-09-09T09:20:13;20.00;99.90
5697;DHT22;2873;50.966;7.210;2022-09-09T09:22:50;20.20;99.90
5697;DHT22;2873;50.966;7.210;2022-09-09T09:25:22;20.20;99.90
5697;DHT22;2873;50.966;7.210;2022-09-09T09:28:02;20.40;99.90
5697;DHT22;2873;50.966;7.210;2022-09-09T09:33:19;20.90;99.90
5697;DHT22;2873;50.966;7.210;2022-09-09T09:35:49;20.90;99.90
5697;DHT22;2873;50.966;7.210;2022-09-09T09:38:20;21.10;99.90
5697;DHT22;2873;50.966;7.210;2022-09-09T09:40:56;21.30;99.90
5697;DHT22;2873;50.966;7.210;2022-09-09T09:43:33;21.20;99.90
5697;DHT22;2873;50.966;7.210;2022-09-09T09:45:59;21.10;99.90
5697;DHT22;2873;50.966;7.210;2022-09-09T09:48:27;21.00;99.90
5697;DHT22;2873;50.966;7.210;2022-09-09T09:50:59;20.90;99.90
5697;DHT22;2873;50.966;7.210;2022-09-09T09:53:31;20.80;99.90
5697;DHT22;2873;50.966;7.210;2022-09-09T09:56:01;20.90;99.90
5697;DHT22;2873;50.966;7.210;2022-09-09T09:58:31;20.60;99.90
5697;DHT22;2873;50.966;7.210;2022-09-09T10:00:59;20.50;99.90
5697;DHT22;2873;50.966;7.210;2022-09-09T10:03:35;20.50;99.90
5697;DHT22;2873;50.966;7.210;2022-09-09T10:06:06;20.50;99.90
5697;DHT22;2873;50.966;7.210;2022-09-09T10:08:43;20.50;99.90
5697;DHT22;2873;50.966;7.210;2022-09-09T10:11:35;20.50;99.90
5697;DHT22;2873;50.966;7.210;2022-09-09T10:14:21;20.40;99.90
5697;DHT22;2873;50.966;7.210;2022-09-09T10:19:36;20.40;99.90
5697;DHT22;2873;50.966;7.210;2022-09-09T10:22:25;20.40;99.90
5697;DHT22;2873;50.966;7.210;2022-09-09T10:33:51;20.80;99.90
5697;DHT22;2873;50.966;7.210;2022-09-09T10:36:24;20.80;99.90
5697;DHT22;2873;50.966;7.210;2022-09-09T10:39:03;20.90;99.90
5697;DHT22;2873;50.966;7.210;2022-09-09T10:41:54;20.80;99.90
5697;DHT22;2873;50.966;7.210;2022-09-09T10:44:29;20.70;99.90
5697;DHT22;2873;50.966;7.210;2022-09-09T10:47:21;20.70;99.90
5697;DHT22;2873;50.966;7.210;2022-09-09T10:53:22;20.70;99.90
5697;DHT22;2873;50.966;7.210;2022-09-09T10:55:53;20.60;99.90
5697;DHT22;2873;50.966;7.210;2022-09-09T11:01:25;20.90;99.90
5697;DHT22;2873;50.966;7.210;2022-09-09T11:04:00;20.90;99.90
5697;DHT22;2873;50.966;7.210;2022-09-09T11:06:39;21.10;99.90
5697;DHT22;2873;50.966;7.210;2022-09-09T11:09:15;21.10;99.90
5697;DHT22;2873;50.966;7.210;2022-09-09T11:11:55;21.10;99.90
5697;DHT22;2873;50.966;7.210;2022-09-09T11:14:36;21.00;99.90
5697;DHT22;2873;50.966;7.210;2022-09-09T11:17:15;21.20;99.90
5697;DHT22;2873;50.966;7.210;2022-09-09T11:19:44;21.20;99.90
5697;DHT22;2873;50.966;7.210;2022-09-09T11:24:45;21.10;99.90
5697;DHT22;2873;50.966;7.210;2022-09-09T11:30:18;21.40;99.90
5697;DHT22;2873;50.966;7.210;2022-09-09T11:33:07;21.50;99.90
5697;DHT22;2873;50.966;7.210;2022-09-09T11:41:02;21.70;99.90
5697;DHT22;2873;50.966;7.210;2022-09-09T11:43:32;21.80;99.90
5697;DHT22;2873;50.966;7.210;2022-09-09T11:46:01;21.80;99.90
5697;DHT22;2873;50.966;7.210;2022-09-09T11:48:39;21.70;99.90
5697;DHT22;2873;50.966;7.210;2022-09-09T11:51:10;21.40;99.90
5697;DHT22;2873;50.966;7.210;2022-09-09T11:56:30;21.40;99.90
5697;DHT22;2873;50.966;7.210;2022-09-09T12:01:45;21.40;99.90
5697;DHT22;2873;50.966;7.210;2022-09-09T12:04:28;21.30;99.90
5697;DHT22;2873;50.966;7.210;2022-09-09T12:15:00;21.50;99.90
5697;DHT22;2873;50.966;7.210;2022-09-09T12:17:31;21.70;99.90
5697;DHT22;2873;50.966;7.210;2022-09-09T12:25:28;21.90;99.90
5697;DHT22;2873;50.966;7.210;2022-09-09T12:28:04;21.90;99.90
5697;DHT22;2873;50.966;7.210;2022-09-09T12:33:12;21.70;99.90
5697;DHT22;2873;50.966;7.210;2022-09-09T12:35:38;21.90;99.90
5697;DHT22;2873;50.966;7.210;2022-09-09T12:38:06;21.70;99.90
5697;DHT22;2873;50.966;7.210;2022-09-09T12:40:37;21.60;99.90
5697;DHT22;2873;50.966;7.210;2022-09-09T12:43:18;21.60;99.90
5697;DHT22;2873;50.966;7.210;2022-09-09T12:45:44;21.40;99.90
5697;DHT22;2873;50.966;7.210;2022-09-09T12:48:11;21.30;99.90
5697;DHT22;2873;50.966;7.210;2022-09-09T12:53:27;21.40;99.90
5697;DHT22;2873;50.966;7.210;2022-09-09T12:58:25;21.50;99.90
5697;DHT22;2873;50.966;7.210;2022-09-09T13:00:55;21.40;99.90
5697;DHT22;2873;50.966;7.210;2022-09-09T13:03:24;21.30;99.90
5697;DHT22;2873;50.966;7.210;2022-09-09T13:05:51;21.40;99.90
5697;DHT22;2873;50.966;7.210;2022-09-09T13:08:18;21.20;99.90
5697;DHT22;2873;50.966;7.210;2022-09-09T13:10:59;21.40;99.90
5697;DHT22;2873;50.966;7.210;2022-09-09T13:13:36;21.50;99.90
5697;DHT22;2873;50.966;7.210;2022-09-09T13:16:04;21.80;99.90
5697;DHT22;2873;50.966;7.210;2022-09-09T13:18:34;21.70;99.90
5697;DHT22;2873;50.966;7.210;2022-09-09T13:21:00;22.20;99.90
5697;DHT22;2873;50.966;7.210;2022-09-09T13:23:28;22.20;99.90
5697;DHT22;2873;50.966;7.210;2022-09-09T13:26:03;22.10;99.90
5697;DHT22;2873;50.966;7.210;2022-09-09T13:28:30;22.30;99.90
5697;DHT22;2873;50.966;7.210;2022-09-09T13:31:20;22.10;99.90
5697;DHT22;2873;50.966;7.210;2022-09-09T13:33:45;22.10;99.90
5697;DHT22;2873;50.966;7.210;2022-09-09T13:36:11;21.80;99.90
5697;DHT22;2873;50.966;7.210;2022-09-09T13:44:01;21.20;99.90
5697;DHT22;2873;50.966;7.210;2022-09-09T13:49:19;21.00;99.90
5697;DHT22;2873;50.966;7.210;2022-09-09T13:51:45;21.60;99.90
5697;DHT22;2873;50.966;7.210;2022-09-09T13:54:13;22.40;99.90
5697;DHT22;2873;50.966;7.210;2022-09-09T13:56:40;22.90;99.90
5697;DHT22;2873;50.966;7.210;2022-09-09T13:59:17;23.30;99.90
5697;DHT22;2873;50.966;7.210;2022-09-09T14:01:45;23.40;99.90
5697;DHT22;2873;50.966;7.210;2022-09-09T14:04:11;23.30;99.90
5697;DHT22;2873;50.966;7.210;2022-09-09T14:06:38;23.10;99.90
5697;DHT22;2873;50.966;7.210;2022-09-09T14:09:11;23.00;99.90
5697;DHT22;2873;50.966;7.210;2022-09-09T14:11:37;22.70;99.90
5697;DHT22;2873;50.966;7.210;2022-09-09T14:14:02;22.60;99.90
5697;DHT22;2873;50.966;7.210;2022-09-09T14:16:29;22.50;99.90
5697;DHT22;2873;50.966;7.210;2022-09-09T14:18:54;22.50;99.90
5697;DHT22;2873;50.966;7.210;2022-09-09T14:21:23;22.20;99.90
5697;DHT22;2873;50.966;7.210;2022-09-09T14:23:49;22.20;99.90
5697;DHT22;2873;50.966;7.210;2022-09-09T14:26:14;22.20;99.90
5697;DHT22;2873;50.966;7.210;2022-09-09T14:28:40;22.10;99.90
5697;DHT22;2873;50.966;7.210;2022-09-09T14:31:06;22.00;99.90
5697;DHT22;2873;50.966;7.210;2022-09-09T14:33:32;21.80;99.90
5697;DHT22;2873;50.966;7.210;2022-09-09T14:36:03;21.90;99.90
5697;DHT22;2873;50.966;7.210;2022-09-09T14:38:30;22.10;99.90
5697;DHT22;2873;50.966;7.210;2022-09-09T14:40:56;22.20;99.90
5697;DHT22;2873;50.966;7.210;2022-09-09T14:43:23;22.00;99.90
5697;DHT22;2873;50.966;7.210;2022-09-09T14:45:49;22.30;99.90
5697;DHT22;2873;50.966;7.210;2022-09-09T14:48:16;22.40;99.90
5697;DHT22;2873;50.966;7.210;2022-09-09T14:50:43;22.40;99.90
5697;DHT22;2873;50.966;7.210;2022-09-09T14:53:08;22.50;99.90
5697;DHT22;2873;50.966;7.210;2022-09-09T14:55:35;22.30;99.90
5697;DHT22;2873;50.966;7.210;2022-09-09T14:58:01;22.40;99.90
5697;DHT22;2873;50.966;7.210;2022-09-09T15:00:27;22.00;99.90
5697;DHT22;2873;50.966;7.210;2022-09-09T15:02:53;21.90;99.90
5697;DHT22;2873;50.966;7.210;2022-09-09T15:05:20;21.70;99.90
5697;DHT22;2873;50.966;7.210;2022-09-09T15:07:45;21.60;99.90
5697;DHT22;2873;50.966;7.210;2022-09-09T15:10:11;21.50;99.90
5697;DHT22;2873;50.966;7.210;2022-09-09T15:12:37;21.50;99.90
5697;DHT22;2873;50.966;7.210;2022-09-09T15:15:04;21.40;99.90
5697;DHT22;2873;50.966;7.210;2022-09-09T15:17:30;21.30;99.90
5697;DHT22;2873;50.966;7.210;2022-09-09T15:19:55;21.10;99.90
5697;DHT22;2873;50.966;7.210;2022-09-09T15:22:21;21.20;99.90
5697;DHT22;2873;50.966;7.210;2022-09-09T15:24:47;21.20;99.90
5697;DHT22;2873;50.966;7.210;2022-09-09T15:27:12;21.10;99.90
5697;DHT22;2873;50.966;7.210;2022-09-09T15:29:40;21.10;99.90
5697;DHT22;2873;50.966;7.210;2022-09-09T15:32:06;21.10;99.90
5697;DHT22;2873;50.966;7.210;2022-09-09T15:34:32;21.10;99.90
5697;DHT22;2873;50.966;7.210;2022-09-09T15:36:57;21.20;99.90
5697;DHT22;2873;50.966;7.210;2022-09-09T15:39:25;21.10;99.90
5697;DHT22;2873;50.966;7.210;2022-09-09T15:41:51;21.00;99.90
5697;DHT22;2873;50.966;7.210;2022-09-09T15:44:17;21.10;99.90
5697;DHT22;2873;50.966;7.210;2022-09-09T15:46:50;21.10;99.90
5697;DHT22;2873;50.966;7.210;2022-09-09T15:49:24;21.00;99.90
5697;DHT22;2873;50.966;7.210;2022-09-09T15:51:55;21.00;99.90
5697;DHT22;2873;50.966;7.210;2022-09-09T15:54:23;21.10;99.90
5697;DHT22;2873;50.966;7.210;2022-09-09T15:56:55;21.20;99.90
5697;DHT22;2873;50.966;7.210;2022-09-09T15:59:24;20.90;99.90
5697;DHT22;2873;50.966;7.210;2022-09-09T16:01:50;20.90;99.90
5697;DHT22;2873;50.966;7.210;2022-09-09T16:04:20;20.90;99.90
5697;DHT22;2873;50.966;7.210;2022-09-09T16:06:56;20.50;99.90
5697;DHT22;2873;50.966;7.210;2022-09-09T16:09:24;20.50;99.90
5697;DHT22;2873;50.966;7.210;2022-09-09T16:11:50;20.20;99.90
5697;DHT22;2873;50.966;7.210;2022-09-09T16:14:16;19.70;99.90
5697;DHT22;2873;50.966;7.210;2022-09-09T16:16:42;19.70;99.90
5697;DHT22;2873;50.966;7.210;2022-09-09T16:19:10;19.50;99.90
5697;DHT22;2873;50.966;7.210;2022-09-09T16:21:43;19.20;99.90
5697;DHT22;2873;50.966;7.210;2022-09-09T16:24:11;19.00;99.90
5697;DHT22;2873;50.966;7.210;2022-09-09T16:26:41;18.90;99.90
5697;DHT22;2873;50.966;7.210;2022-09-09T16:29:09;18.70;99.90
5697;DHT22;2873;50.966;7.210;2022-09-09T16:31:35;18.60;99.90
5697;DHT22;2873;50.966;7.210;2022-09-09T16:34:01;18.60;99.90
5697;DHT22;2873;50.966;7.210;2022-09-09T16:36:30;18.70;99.90
5697;DHT22;2873;50.966;7.210;2022-09-09T16:38:58;18.80;99.90
5697;DHT22;2873;50.966;7.210;2022-09-09T16:41:25;18.70;99.90
5697;DHT22;2873;50.966;7.210;2022-09-09T16:43:55;18.70;99.90
5697;DHT22;2873;50.966;7.210;2022-09-09T16:46:22;18.80;99.90
5697;DHT22;2873;50.966;7.210;2022-09-09T16:48:49;18.90;99.90
5697;DHT22;2873;50.966;7.210;2022-09-09T16:51:18;19.00;99.90
5697;DHT22;2873;50.966;7.210;2022-09-09T16:53:45;19.00;99.90
5697;DHT22;2873;50.966;7.210;2022-09-09T16:56:16;19.30;99.90
5697;DHT22;2873;50.966;7.210;2022-09-09T16:58:42;19.20;99.90
5697;DHT22;2873;50.966;7.210;2022-09-09T17:01:09;19.20;99.90
5697;DHT22;2873;50.966;7.210;2022-09-09T17:03:37;19.20;99.90
5697;DHT22;2873;50.966;7.210;2022-09-09T17:06:02;19.30;99.90
5697;DHT22;2873;50.966;7.210;2022-09-09T17:08:31;19.30;99.90
5697;DHT22;2873;50.966;7.210;2022-09-09T17:10:58;19.40;99.90
5697;DHT22;2873;50.966;7.210;2022-09-09T17:13:24;19.50;99.90
5697;DHT22;2873;50.966;7.210;2022-09-09T17:15:50;19.30;99.90
5697;DHT22;2873;50.966;7.210;2022-09-09T17:18:16;19.40;99.90
5697;DHT22;2873;50.966;7.210;2022-09-09T17:20:42;19.40;99.90
5697;DHT22;2873;50.966;7.210;2022-09-09T17:23:10;19.60;99.90
5697;DHT22;2873;50.966;7.210;2022-09-09T17:25:37;19.50;99.90
5697;DHT22;2873;50.966;7.210;2022-09-09T17:28:03;19.50;99.90
5697;DHT22;2873;50.966;7.210;2022-09-09T17:30:36;19.50;99.90
5697;DHT22;2873;50.966;7.210;2022-09-09T17:33:05;19.50;99.90
5697;DHT22;2873;50.966;7.210;2022-09-09T17:35:31;19.30;99.90
5697;DHT22;2873;50.966;7.210;2022-09-09T17:37:57;19.30;99.90
5697;DHT22;2873;50.966;7.210;2022-09-09T17:40:23;19.10;99.90
5697;DHT22;2873;50.966;7.210;2022-09-09T17:42:49;19.10;99.90
5697;DHT22;2873;50.966;7.210;2022-09-09T17:45:15;19.00;99.90
5697;DHT22;2873;50.966;7.210;2022-09-09T17:47:41;19.00;99.90
5697;DHT22;2873;50.966;7.210;2022-09-09T17:50:08;18.90;99.90
5697;DHT22;2873;50.966;7.210;2022-09-09T17:52:34;18.90;99.90
5697;DHT22;2873;50.966;7.210;2022-09-09T17:55:00;18.90;99.90
5697;DHT22;2873;50.966;7.210;2022-09-09T17:57:25;18.90;99.90
5697;DHT22;2873;50.966;7.210;2022-09-09T17:59:51;19.00;99.90
5697;DHT22;2873;50.966;7.210;2022-09-09T18:02:17;18.90;99.90
5697;DHT22;2873;50.966;7.210;2022-09-09T18:04:43;18.90;99.90
5697;DHT22;2873;50.966;7.210;2022-09-09T18:07:09;18.90;99.90
5697;DHT22;2873;50.966;7.210;2022-09-09T18:09:35;18.80;99.90
5697;DHT22;2873;50.966;7.210;2022-09-09T18:12:03;18.80;99.90
5697;DHT22;2873;50.966;7.210;2022-09-09T18:14:31;18.80;99.90
5697;DHT22;2873;50.966;7.210;2022-09-09T18:16:58;18.80;99.90
5697;DHT22;2873;50.966;7.210;2022-09-09T18:19:26;18.70;99.90
5697;DHT22;2873;50.966;7.210;2022-09-09T18:21:53;18.70;99.90
5697;DHT22;2873;50.966;7.210;2022-09-09T18:24:20;18.70;99.90
5697;DHT22;2873;50.966;7.210;2022-09-09T18:26:47;18.50;99.90
5697;DHT22;2873;50.966;7.210;2022-09-09T18:29:15;18.70;99.90
5697;DHT22;2873;50.966;7.210;2022-09-09T18:31:41;18.60;99.90
5697;DHT22;2873;50.966;7.210;2022-09-09T18:34:09;18.40;99.90
5697;DHT22;2873;50.966;7.210;2022-09-09T18:36:44;18.40;99.90